sensor_id;sensor_type;location;lat;lon;timestamp;temperature;humidity
4002;DHT22;2015;48.670;9.060;2023-04-01T00:00:11;7.40;99.90
4002;DHT22;2015;48.670;9.060;2023-04-01T00:02:43;7.50;99.90
4002;DHT22;2015;48.670;9.060;2023-04-01T00:05:15;7.50;99.90
4002;DHT22;2015;48.670;9.060;2023-04-01T00:07:48;7.60;99.90
4002;DHT22;2015;48.670;9.060;2023-04-01T00:10:19;7.60;99.90
4002;DHT22;2015;48.670;9.060;2023-04-01T00:12:51;7.60;99.90
4002;DHT22;2015;48.670;9.060;2023-04-01T00:15:23;7.60;99.90
4002;DHT22;2015;48.670;9.060;2023-04-01T00:17:55;7.60;99.90
4002;DHT22;2015;48.670;9.060;2023-04-01T00:20:27;7.50;99.90
4002;DHT22;2015;48.670;9.060;2023-04-01T00:22:59;7.50;99.90
4002;DHT22;2015;48.670;9.060;2023-04-01T00:25:31;7.50;99.90
4002;DHT22;2015;48.670;9.060;2023-04-01T00:28:03;7.50;99.90
4002;DHT22;2015;48.670;9.060;2023-04-01T00:30:36;7.50;99.90
4002;DHT22;2015;48.670;9.060;2023-04-01T00:33:08;7.50;99.90
4002;DHT22;2015;48.670;9.060;2023-04-01T00:35:40;7.50;99.90
4002;DHT22;2015;48.670;9.060;2023-04-01T00:38:14;7.60;99.90
4002;DHT22;2015;48.670;9.060;2023-04-01T00:40:46;7.50;99.90
4002;DHT22;2015;48.670;9.060;2023-04-01T00:43:19;7.50;99.90
4002;DHT22;2015;48.670;9.060;2023-04-01T00:45:52;7.50;99.90
4002;DHT22;2015;48.670;9.060;2023-04-01T00:48:27;7.60;99.90
4002;DHT22;2015;48.670;9.060;2023-04-01T00:51:12;7.50;99.90
4002;DHT22;2015;48.670;9.060;2023-04-01T00:53:48;7.50;99.90
4002;DHT22;2015;48.670;9.060;2023-04-01T00:56:24;7.50;99.90
4002;DHT22;2015;48.670;9.060;2023-04-01T00:59:02;7.50;99.90
4002;DHT22;2015;48.670;9.060;2023-04-01T01:01:35;7.50;99.90
4002;DHT22;2015;48.670;9.060;2023-04-01T01:04:21;7.50;99.90
4002;DHT22;2015;48.670;9.060;2023-04-01T01:34:53;7.40;99.90
4002;DHT22;2015;48.670;9.060;2023-04-01T01:37:27;7.40;99.90
4002;DHT22;2015;48.670;9.060;2023-04-01T01:40:07;7.40;99.90
4002;DHT22;2015;48.670;9.060;2023-04-01T01:42:52;7.50;99.90
4002;DHT22;2015;48.670;9.060;2023-04-01T01:45:26;7.50;99.90
4002;DHT22;2015;48.670;9.060;2023-04-01T01:48:00;7.40;99.90
4002;DHT22;2015;48.670;9.060;2023-04-01T01:50:33;7.40;99.90
4002;DHT22;2015;48.670;9.060;2023-04-01T01:53:09;7.40;99.90
4002;DHT22;2015;48.670;9.060;2023-04-01T01:55:44;7.30;99.90
4002;DHT22;2015;48.670;9.060;2023-04-01T01:58:44;7.30;99.90
4002;DHT22;2015;48.670;9.060;2023-04-01T02:01:22;7.30;99.90
4002;DHT22;2015;48.670;9.060;2023-04-01T02:03:55;7.30;99.90
4002;DHT22;2015;48.670;9.060;2023-04-01T02:06:30;7.30;99.90
4002;DHT22;2015;48.670;9.060;2023-04-01T02:09:05;7.30;99.90
4002;DHT22;2015;48.670;9.060;2023-04-01T02:11:46;7.30;99.90
4002;DHT22;2015;48.670;9.060;2023-04-01T02:14:24;7.30;99.90
4002;DHT22;2015;48.670;9.060;2023-04-01T02:17:17;7.20;99.90
4002;DHT22;2015;48.670;9.060;2023-04-01T02:20:18;7.20;99.90
4002;DHT22;2015;48.670;9.060;2023-04-01T02:22:56;7.20;99.90
4002;DHT22;2015;48.670;9.060;2023-04-01T02:25:33;7.20;99.90
4002;DHT22;2015;48.670;9.060;2023-04-01T02:28:07;7.20;99.90
4002;DHT22;2015;48.670;9.060;2023-04-01T02:30:41;7.20;99.90
4002;DHT22;2015;48.670;9.060;2023-04-01T02:33:14;7.20;99.90
4002;DHT22;2015;48.670;9.060;2023-04-01T02:35:46;7.20;99.90
4002;DHT22;2015;48.670;9.060;2023-04-01T02:38:18;7.20;99.90
4002;DHT22;2015;48.670;9.060;2023-04-01T02:40:56;7.20;99.90
4002;DHT22;2015;48.670;9.060;2023-04-01T02:43:28;7.20;99.90
4002;DHT22;2015;48.670;9.060;2023-04-01T02:46:00;7.20;99.90
4002;DHT22;2015;48.670;9.060;2023-04-01T02:48:33;7.10;99.90
4002;DHT22;2015;48.670;9.060;2023-04-01T02:51:05;7.10;99.90
4002;DHT22;2015;48.670;9.060;2023-04-01T02:53:37;7.10;99.90
4002;DHT22;2015;48.670;9.060;2023-04-01T02:56:09;7.10;99.90
4002;DHT22;2015;48.670;9.060;2023-04-01T02:58:40;7.00;99.90
4002;DHT22;2015;48.670;9.060;2023-04-01T03:01:12;7.10;99.90
4002;DHT22;2015;48.670;9.060;2023-04-01T03:03:44;7.10;99.90
4002;DHT22;2015;48.670;9.060;2023-04-01T03:06:17;7.10;99.90
4002;DHT22;2015;48.670;9.060;2023-04-01T03:08:49;7.00;99.90
4002;DHT22;2015;48.670;9.060;2023-04-01T03:11:21;7.00;99.90
4002;DHT22;2015;48.670;9.060;2023-04-01T03:13:52;7.00;99.90
4002;DHT22;2015;48.670;9.060;2023-04-01T03:16:24;7.00;99.90
4002;DHT22;2015;48.670;9.060;2023-04-01T03:18:56;7.00;99.90
4002;DHT22;2015;48.670;9.060;2023-04-01T03:21:30;7.00;99.90
4002;DHT22;2015;48.670;9.060;2023-04-01T03:24:02;7.00;99.90
4002;DHT22;2015;48.670;9.060;2023-04-01T03:26:34;7.00;99.90
4002;DHT22;2015;48.670;9.060;2023-04-01T03:29:06;7.00;99.90
4002;DHT22;2015;48.670;9.060;2023-04-01T03:31:38;7.00;99.90
4002;DHT22;2015;48.670;9.060;2023-04-01T03:34:10;7.00;99.90
4002;DHT22;2015;48.670;9.060;2023-04-01T03:36:41;7.00;99.90
4002;DHT22;2015;48.670;9.060;2023-04-01T03:39:13;7.00;99.90
4002;DHT22;2015;48.670;9.060;2023-04-01T03:41:45;6.90;99.90
4002;DHT22;2015;48.670;9.060;2023-04-01T03:44:17;6.90;99.90
4002;DHT22;2015;48.670;9.060;2023-04-01T03:46:49;6.90;99.90
4002;DHT22;2015;48.670;9.060;2023-04-01T03:49:21;6.90;99.90
4002;DHT22;2015;48.670;9.060;2023-04-01T03:51:53;6.90;99.90
4002;DHT22;2015;48.670;9.060;2023-04-01T03:54:24;7.00;99.90
4002;DHT22;2015;48.670;9.060;2023-04-01T03:56:56;6.90;99.90
4002;DHT22;2015;48.670;9.060;2023-04-01T03:59:29;7.00;99.90
4002;DHT22;2015;48.670;9.060;2023-04-01T04:02:01;7.00;99.90
4002;DHT22;2015;48.670;9.060;2023-04-01T04:04:33;6.90;99.90
4002;DHT22;2015;48.670;9.060;2023-04-01T04:07:05;6.90;99.90
4002;DHT22;2015;48.670;9.060;2023-04-01T04:09:37;6.80;99.90
4002;DHT22;2015;48.670;9.060;2023-04-01T04:12:09;6.70;99.90
4002;DHT22;2015;48.670;9.060;2023-04-01T04:14:40;6.70;99.90
4002;DHT22;2015;48.670;9.060;2023-04-01T04:17:12;6.70;99.90
4002;DHT22;2015;48.670;9.060;2023-04-01T04:19:47;6.70;99.90
4002;DHT22;2015;48.670;9.060;2023-04-01T04:22:19;6.60;99.90
4002;DHT22;2015;48.670;9.060;2023-04-01T04:24:51;6.60;99.90
4002;DHT22;2015;48.670;9.060;2023-04-01T04:27:23;6.60;99.90
4002;DHT22;2015;48.670;9.060;2023-04-01T04:29:55;6.60;99.90
4002;DHT22;2015;48.670;9.060;2023-04-01T04:32:26;6.50;99.90
4002;DHT22;2015;48.670;9.060;2023-04-01T04:35:00;6.50;99.90
4002;DHT22;2015;48.670;9.060;2023-04-01T04:37:32;6.50;99.90
4002;DHT22;2015;48.670;9.060;2023-04-01T04:40:04;6.50;99.90
4002;DHT22;2015;48.670;9.060;2023-04-01T04:42:36;6.60;99.90
4002;DHT22;2015;48.670;9.060;2023-04-01T04:45:08;6.60;99.90
4002;DHT22;2015;48.670;9.060;2023-04-01T04:47:40;6.60;99.90
4002;DHT22;2015;48.670;9.060;2023-04-01T04:50:12;6.70;99.90
4002;DHT22;2015;48.670;9.060;2023-04-01T04:52:44;6.70;99.90
4002;DHT22;2015;48.670;9.060;2023-04-01T04:55:16;6.70;99.90
4002;DHT22;2015;48.670;9.060;2023-04-01T04:57:48;6.80;99.90
4002;DHT22;2015;48.670;9.060;2023-04-01T05:00:19;6.80;99.90
4002;DHT22;2015;48.670;9.060;2023-04-01T05:02:51;6.80;99.90
4002;DHT22;2015;48.670;9.060;2023-04-01T05:05:23;6.80;99.90
4002;DHT22;2015;48.670;9.060;2023-04-01T05:07:55;6.80;99.90
4002;DHT22;2015;48.670;9.060;2023-04-01T05:10:27;6.80;99.90
4002;DHT22;2015;48.670;9.060;2023-04-01T05:12:59;6.80;99.90
4002;DHT22;2015;48.670;9.060;2023-04-01T05:15:31;6.90;99.90
4002;DHT22;2015;48.670;9.060;2023-04-01T05:18:03;6.90;99.90
4002;DHT22;2015;48.670;9.060;2023-04-01T05:20:35;6.90;99.90
4002;DHT22;2015;48.670;9.060;2023-04-01T05:23:07;7.00;99.90
4002;DHT22;2015;48.670;9.060;2023-04-01T05:25:39;7.00;99.90
4002;DHT22;2015;48.670;9.060;2023-04-01T05:28:11;7.10;99.90
4002;DHT22;2015;48.670;9.060;2023-04-01T05:30:43;7.20;99.90
4002;DHT22;2015;48.670;9.060;2023-04-01T05:33:15;7.20;99.90
4002;DHT22;2015;48.670;9.060;2023-04-01T05:35:47;7.30;99.90
4002;DHT22;2015;48.670;9.060;2023-04-01T05:38:19;7.30;99.90
4002;DHT22;2015;48.670;9.060;2023-04-01T05:40:51;7.30;99.90
4002;DHT22;2015;48.670;9.060;2023-04-01T05:43:29;7.30;99.90
4002;DHT22;2015;48.670;9.060;2023-04-01T05:46:01;7.30;99.90
4002;DHT22;2015;48.670;9.060;2023-04-01T05:48:34;7.30;99.90
4002;DHT22;2015;48.670;9.060;2023-04-01T05:51:15;7.30;99.90
4002;DHT22;2015;48.670;9.060;2023-04-01T05:53:46;7.30;99.90
4002;DHT22;2015;48.670;9.060;2023-04-01T05:56:18;7.40;99.90
4002;DHT22;2015;48.670;9.060;2023-04-01T05:58:53;7.50;99.90
4002;DHT22;2015;48.670;9.060;2023-04-01T06:01:25;7.50;99.90
4002;DHT22;2015;48.670;9.060;2023-04-01T06:03:56;7.60;99.90
4002;DHT22;2015;48.670;9.060;2023-04-01T06:06:30;7.60;99.90
4002;DHT22;2015;48.670;9.060;2023-04-01T06:09:18;7.70;99.90
4002;DHT22;2015;48.670;9.060;2023-04-01T06:23:51;7.80;99.90
4002;DHT22;2015;48.670;9.060;2023-04-01T06:26:37;7.80;99.90
4002;DHT22;2015;48.670;9.060;2023-04-01T06:32:19;7.80;99.90
4002;DHT22;2015;48.670;9.060;2023-04-01T06:34:57;7.90;99.90
4002;DHT22;2015;48.670;9.060;2023-04-01T06:40:55;7.90;99.90
4002;DHT22;2015;48.670;9.060;2023-04-01T06:43:46;7.90;99.90
4002;DHT22;2015;48.670;9.060;2023-04-01T06:52:06;7.90;99.90
4002;DHT22;2015;48.670;9.060;2023-04-01T06:54:47;7.90;99.90
4002;DHT22;2015;48.670;9.060;2023-04-01T06:57:43;8.00;99.90
4002;DHT22;2015;48.670;9.060;2023-04-01T07:00:34;8.20;99.90
4002;DHT22;2015;48.670;9.060;2023-04-01T07:05:48;8.20;99.90
4002;DHT22;2015;48.670;9.060;2023-04-01T07:08:25;8.30;99.90
4002;DHT22;2015;48.670;9.060;2023-04-01T07:11:33;8.30;99.90
4002;DHT22;2015;48.670;9.060;2023-04-01T07:17:09;8.40;99.90
4002;DHT22;2015;48.670;9.060;2023-04-01T07:19:56;8.30;99.90
4002;DHT22;2015;48.670;9.060;2023-04-01T07:22:40;8.30;99.90
4002;DHT22;2015;48.670;9.060;2023-04-01T07:25:22;8.40;99.90
4002;DHT22;2015;48.670;9.060;2023-04-01T07:28:05;8.40;99.90
4002;DHT22;2015;48.670;9.060;2023-04-01T07:30:50;8.40;99.90
4002;DHT22;2015;48.670;9.060;2023-04-01T07:33:39;8.30;99.90
4002;DHT22;2015;48.670;9.060;2023-04-01T07:44:24;8.10;99.90
4002;DHT22;2015;48.670;9.060;2023-04-01T07:47:09;8.20;99.90
4002;DHT22;2015;48.670;9.060;2023-04-01T07:50:13;8.20;99.90
4002;DHT22;2015;48.670;9.060;2023-04-01T08:07:03;8.30;99.90
4002;DHT22;2015;48.670;9.060;2023-04-01T08:09:53;8.30;99.90
4002;DHT22;2015;48.670;9.060;2023-04-01T08:15:51;8.30;99.90
4002;DHT22;2015;48.670;9.060;2023-04-01T08:18:39;8.30;99.90
4002;DHT22;2015;48.670;9.060;2023-04-01T08:21:21;8.30;99.90
4002;DHT22;2015;48.670;9.060;2023-04-01T08:23:58;8.30;99.90
4002;DHT22;2015;48.670;9.060;2023-04-01T08:26:44;8.30;99.90
4002;DHT22;2015;48.670;9.060;2023-04-01T08:30:34;8.30;99.90
4002;DHT22;2015;48.670;9.060;2023-04-01T08:36:44;8.30;99.90
4002;DHT22;2015;48.670;9.060;2023-04-01T08:46:15;8.10;99.90
4002;DHT22;2015;48.670;9.060;2023-04-01T08:53:13;8.00;99.90
4002;DHT22;2015;48.670;9.060;2023-04-01T09:11:06;8.50;99.90
4002;DHT22;2015;48.670;9.060;2023-04-01T09:19:45;8.90;99.90
4002;DHT22;2015;48.670;9.060;2023-04-01T09:29:20;8.80;99.90
4002;DHT22;2015;48.670;9.060;2023-04-01T09:37:34;9.00;99.90
4002;DHT22;2015;48.670;9.060;2023-04-01T09:52:07;8.70;99.90
4002;DHT22;2015;48.670;9.060;2023-04-01T09:55:29;8.60;99.90
4002;DHT22;2015;48.670;9.060;2023-04-01T10:00:56;8.50;99.90
4002;DHT22;2015;48.670;9.060;2023-04-01T10:04:16;8.50;99.90
4002;DHT22;2015;48.670;9.060;2023-04-01T10:12:36;8.40;99.90
4002;DHT22;2015;48.670;9.060;2023-04-01T10:15:40;8.40;99.90
4002;DHT22;2015;48.670;9.060;2023-04-01T10:24:04;8.60;99.90
4002;DHT22;2015;48.670;9.060;2023-04-01T10:36:48;9.00;99.90
4002;DHT22;2015;48.670;9.060;2023-04-01T10:38:55;9.30;99.90
4002;DHT22;2015;48.670;9.060;2023-04-01T10:50:55;9.90;99.90
4002;DHT22;2015;48.670;9.060;2023-04-01T10:54:00;9.90;99.90
4002;DHT22;2015;48.670;9.060;2023-04-01T10:56:46;9.70;99.90
4002;DHT22;2015;48.670;9.060;2023-04-01T11:14:51;9.50;99.90
4002;DHT22;2015;48.670;9.060;2023-04-01T11:29:12;9.40;99.90
4002;DHT22;2015;48.670;9.060;2023-04-01T11:35:14;9.50;99.90
4002;DHT22;2015;48.670;9.060;2023-04-01T11:41:02;9.50;99.90
4002;DHT22;2015;48.670;9.060;2023-04-01T11:46:44;9.40;99.90
4002;DHT22;2015;48.670;9.060;2023-04-01T11:55:38;9.40;99.90
4002;DHT22;2015;48.670;9.060;2023-04-01T12:15:45;10.30;99.90
4002;DHT22;2015;48.670;9.060;2023-04-01T12:18:41;10.30;99.90
4002;DHT22;2015;48.670;9.060;2023-04-01T12:32:29;10.00;99.90
4002;DHT22;2015;48.670;9.060;2023-04-01T12:35:21;9.90;99.90
4002;DHT22;2015;48.670;9.060;2023-04-01T12:41:08;9.60;99.90
4002;DHT22;2015;48.670;9.060;2023-04-01T12:49:23;9.90;99.90
4002;DHT22;2015;48.670;9.060;2023-04-01T12:52:21;10.00;99.90
4002;DHT22;2015;48.670;9.060;2023-04-01T13:20:14;11.00;99.90
4002;DHT22;2015;48.670;9.060;2023-04-01T13:23:09;11.00;99.90
4002;DHT22;2015;48.670;9.060;2023-04-01T13:26:11;10.90;99.90
4002;DHT22;2015;48.670;9.060;2023-04-01T13:28:47;10.80;99.90
4002;DHT22;2015;48.670;9.060;2023-04-01T13:31:34;10.80;99.90
4002;DHT22;2015;48.670;9.060;2023-04-01T13:43:23;10.50;99.90
4002;DHT22;2015;48.670;9.060;2023-04-01T13:51:52;10.50;99.90
4002;DHT22;2015;48.670;9.060;2023-04-01T13:57:42;10.50;99.90
4002;DHT22;2015;48.670;9.060;2023-04-01T14:03:37;10.60;99.90
4002;DHT22;2015;48.670;9.060;2023-04-01T14:06:34;10.70;99.90
4002;DHT22;2015;48.670;9.060;2023-04-01T14:12:25;10.60;99.90
4002;DHT22;2015;48.670;9.060;2023-04-01T14:26:30;10.60;99.90
4002;DHT22;2015;48.670;9.060;2023-04-01T14:29:29;10.60;99.90
4002;DHT22;2015;48.670;9.060;2023-04-01T14:35:29;10.60;99.90
4002;DHT22;2015;48.670;9.060;2023-04-01T14:41:11;10.70;99.90
4002;DHT22;2015;48.670;9.060;2023-04-01T14:47:15;10.60;99.90
4002;DHT22;2015;48.670;9.060;2023-04-01T14:49:54;10.60;99.90
4002;DHT22;2015;48.670;9.060;2023-04-01T14:52:38;10.60;99.90
4002;DHT22;2015;48.670;9.060;2023-04-01T14:58:12;10.60;99.90
4002;DHT22;2015;48.670;9.060;2023-04-01T15:00:48;10.40;99.90
4002;DHT22;2015;48.670;9.060;2023-04-01T15:03:32;10.50;99.90
4002;DHT22;2015;48.670;9.060;2023-04-01T15:24:46;10.40;99.90
4002;DHT22;2015;48.670;9.060;2023-04-01T15:27:47;10.40;99.90
4002;DHT22;2015;48.670;9.060;2023-04-01T15:33:15;10.40;99.90
4002;DHT22;2015;48.670;9.060;2023-04-01T15:36:18;10.40;99.90
4002;DHT22;2015;48.670;9.060;2023-04-01T15:39:03;10.50;99.90
4002;DHT22;2015;48.670;9.060;2023-04-01T15:50:35;10.30;99.90
4002;DHT22;2015;48.670;9.060;2023-04-01T15:53:35;10.10;99.90
4002;DHT22;2015;48.670;9.060;2023-04-01T15:56:36;10.00;99.90
4002;DHT22;2015;48.670;9.060;2023-04-01T16:02:38;10.00;99.90
4002;DHT22;2015;48.670;9.060;2023-04-01T16:10:57;9.70;99.90
4002;DHT22;2015;48.670;9.060;2023-04-01T16:13:46;9.70;99.90
4002;DHT22;2015;48.670;9.060;2023-04-01T16:25:49;9.80;99.90
4002;DHT22;2015;48.670;9.060;2023-04-01T16:28:48;9.80;99.90
4002;DHT22;2015;48.670;9.060;2023-04-01T16:31:32;9.80;99.90
4002;DHT22;2015;48.670;9.060;2023-04-01T16:34:40;9.80;99.90
4002;DHT22;2015;48.670;9.060;2023-04-01T16:37:20;9.80;99.90
4002;DHT22;2015;48.670;9.060;2023-04-01T16:43:25;9.70;99.90
4002;DHT22;2015;48.670;9.060;2023-04-01T16:46:20;9.80;99.90
4002;DHT22;2015;48.670;9.060;2023-04-01T16:49:00;9.80;99.90
4002;DHT22;2015;48.670;9.060;2023-04-01T16:56:55;9.80;99.90
4002;DHT22;2015;48.670;9.060;2023-04-01T17:02:25;9.80;99.90
4002;DHT22;2015;48.670;9.060;2023-04-01T17:05:12;9.80;99.90
4002;DHT22;2015;48.670;9.060;2023-04-01T17:13:46;9.60;99.90
4002;DHT22;2015;48.670;9.060;2023-04-01T17:16:32;9.60;99.90
4002;DHT22;2015;48.670;9.060;2023-04-01T17:19:15;9.50;99.90
4002;DHT22;2015;48.670;9.060;2023-04-01T17:24:54;9.50;99.90
4002;DHT22;2015;48.670;9.060;2023-04-01T17:27:42;9.50;99.90
4002;DHT22;2015;48.670;9.060;2023-04-01T17:39:41;9.30;99.90
4002;DHT22;2015;48.670;9.060;2023-04-01T17:42:16;9.30;99.90
4002;DHT22;2015;48.670;9.060;2023-04-01T17:45:10;9.30;99.90
4002;DHT22;2015;48.670;9.060;2023-04-01T17:48:08;9.30;99.90
4002;DHT22;2015;48.670;9.060;2023-04-01T17:53:47;9.20;99.90
4002;DHT22;2015;48.670;9.060;2023-04-01T17:59:39;9.30;99.90
4002;DHT22;2015;48.670;9.060;2023-04-01T18:02:49;9.30;99.90
4002;DHT22;2015;48.670;9.060;2023-04-01T18:08:58;9.30;99.90
4002;DHT22;2015;48.670;9.060;2023-04-01T18:15:18;9.10;99.90
4002;DHT22;2015;48.670;9.060;2023-04-01T18:23:58;8.70;99.90
4002;DHT22;2015;48.670;9.060;2023-04-01T18:26:35;8.60;99.90
4002;DHT22;2015;48.670;9.060;2023-04-01T18:31:54;8.40;99.90
4002;DHT22;2015;48.670;9.060;2023-04-01T18:34:44;8.30;99.90
4002;DHT22;2015;48.670;9.060;2023-04-01T18:37:42;8.20;99.90
4002;DHT22;2015;48.670;9.060;2023-04-01T18:40:47;8.20;99.90
4002;DHT22;2015;48.670;9.060;2023-04-01T18:43:33;8.20;99.90
4002;DHT22;2015;48.670;9.060;2023-04-01T18:49:14;8.10;99.90
4002;DHT22;2015;48.670;9.060;2023-04-01T18:51:49;8.00;99.90
4002;DHT22;2015;48.670;9.060;2023-04-01T18:54:33;8.00;99.90
4002;DHT22;2015;48.670;9.060;2023-04-01T18:57:14;7.90;99.90
4002;DHT22;2015;48.670;9.060;2023-04-01T19:00:59;7.90;99.90
4002;DHT22;2015;48.670;9.060;2023-04-01T19:05:47;7.80;99.90
4002;DHT22;2015;48.670;9.060;2023-04-01T19:13:58;7.70;99.90
4002;DHT22;2015;48.670;9.060;2023-04-01T19:22:04;7.60;99.90
4002;DHT22;2015;48.670;9.060;2023-04-01T19:27:38;7.60;99.90
4002;DHT22;2015;48.670;9.060;2023-04-01T19:33:21;7.60;99.90
4002;DHT22;2015;48.670;9.060;2023-04-01T19:41:52;7.50;99.90
4002;DHT22;2015;48.670;9.060;2023-04-01T19:50:31;7.30;99.90
4002;DHT22;2015;48.670;9.060;2023-04-01T19:53:17;7.30;99.90
4002;DHT22;2015;48.670;9.060;2023-04-01T19:56:01;7.30;99.90
4002;DHT22;2015;48.670;9.060;2023-04-01T20:04:29;7.10;99.90
4002;DHT22;2015;48.670;9.060;2023-04-01T20:07:23;7.00;99.90
4002;DHT22;2015;48.670;9.060;2023-04-01T20:10:15;7.00;99.90
4002;DHT22;2015;48.670;9.060;2023-04-01T20:15:34;6.90;99.90
4002;DHT22;2015;48.670;9.060;2023-04-01T20:18:25;6.90;99.90
4002;DHT22;2015;48.670;9.060;2023-04-01T20:21:05;6.90;99.90
4002;DHT22;2015;48.670;9.060;2023-04-01T20:23:49;7.00;99.90
4002;DHT22;2015;48.670;9.060;2023-04-01T20:26:29;7.00;99.90
4002;DHT22;2015;48.670;9.060;2023-04-01T20:40:51;7.30;99.90
4002;DHT22;2015;48.670;9.060;2023-04-01T20:46:19;7.40;99.90
4002;DHT22;2015;48.670;9.060;2023-04-01T20:49:11;7.50;99.90
4002;DHT22;2015;48.670;9.060;2023-04-01T21:03:39;7.60;99.90
4002;DHT22;2015;48.670;9.060;2023-04-01T21:09:25;7.60;99.90
4002;DHT22;2015;48.670;9.060;2023-04-01T21:23:15;7.60;99.90
4002;DHT22;2015;48.670;9.060;2023-04-01T21:26:20;7.60;99.90
4002;DHT22;2015;48.670;9.060;2023-04-01T21:29:18;7.60;99.90
4002;DHT22;2015;48.670;9.060;2023-04-01T21:41:54;7.80;99.90
4002;DHT22;2015;48.670;9.060;2023-04-01T21:49:50;7.80;99.90
4002;DHT22;2015;48.670;9.060;2023-04-01T22:06:52;7.90;99.90
4002;DHT22;2015;48.670;9.060;2023-04-01T22:09:32;7.90;99.90
4002;DHT22;2015;48.670;9.060;2023-04-01T22:12:17;7.90;99.90
4002;DHT22;2015;48.670;9.060;2023-04-01T22:17:58;7.90;99.90
4002;DHT22;2015;48.670;9.060;2023-04-01T22:20:53;7.80;99.90
4002;DHT22;2015;48.670;9.060;2023-04-01T22:26:28;7.80;99.90
4002;DHT22;2015;48.670;9.060;2023-04-01T22:32:16;7.80;99.90
4002;DHT22;2015;48.670;9.060;2023-04-01T22:37:45;7.80;99.90
4002;DHT22;2015;48.670;9.060;2023-04-01T22:40:27;7.80;99.90
4002;DHT22;2015;48.670;9.060;2023-04-01T22:48:51;7.70;99.90
4002;DHT22;2015;48.670;9.060;2023-04-01T22:56:51;7.50;99.90
4002;DHT22;2015;48.670;9.060;2023-04-01T22:59:31;7.40;99.90
4002;DHT22;2015;48.670;9.060;2023-04-01T23:04:47;7.20;99.90
4002;DHT22;2015;48.670;9.060;2023-04-01T23:07:33;7.10;99.90
4002;DHT22;2015;48.670;9.060;2023-04-01T23:10:19;7.00;99.90
4002;DHT22;2015;48.670;9.060;2023-04-01T23:12:55;7.00;99.90
4002;DHT22;2015;48.670;9.060;2023-04-01T23:15:28;6.90;99.90
4002;DHT22;2015;48.670;9.060;2023-04-01T23:18:05;6.80;99.90
4002;DHT22;2015;48.670;9.060;2023-04-01T23:29:21;6.70;99.90
4002;DHT22;2015;48.670;9.060;2023-04-01T23:32:01;6.60;99.90
4002;DHT22;2015;48.670;9.060;2023-04-01T23:34:35;6.60;99.90
4002;DHT22;2015;48.670;9.060;2023-04-01T23:37:11;6.60;99.90
4002;DHT22;2015;48.670;9.060;2023-04-01T23:39:45;6.50;99.90
4002;DHT22;2015;48.670;9.060;2023-04-01T23:42:32;6.50;99.90
4002;DHT22;2015;48.670;9.060;2023-04-01T23:45:13;6.50;99.90
4002;DHT22;2015;48.670;9.060;2023-04-01T23:47:46;6.60;99.90
4002;DHT22;2015;48.670;9.060;2023-04-01T23:50:23;6.60;99.90
4002;DHT22;2015;48.670;9.060;2023-04-01T23:53:03;6.60;99.90
4002;DHT22;2015;48.670;9.060;2023-04-01T23:55:35;6.60;99.90
4002;DHT22;2015;48.670;9.060;2023-04-01T23:58:48;6.60;99.90
